FAOR

Olifants River Bridge Landing Strip Airport

Olifants River Bridge, South Africa
TAF FAOR 251600Z 2518/2624 01007KT CAVOK BECMG 2607/2609 29010KT BECMG 2618/2620 VRB03KT TX24/2612Z TN13/2604Z
Issued Valid From Valid To
Apr-25 @ 16:00 UTC
(2 hours ago)
Apr-25 @ 18:00 UTC
(12 minutes ago)
Apr-27 @ 00:00 UTC
(-1 days ago)
Apr-25 @ 18:00 to Apr-26 @ 07:00
TAF FAOR 251600Z 2518/2624 01007KT CAVOK
Wind Visibility Clouds Conditions
10° at 7 knots 10,000+ meters
  • No significant clouds
Becoming Apr-26 @ 07:00 to Apr-26 @ 18:00
BECMG 2607/2609 29010KT
Wind Visibility Clouds Conditions
290° at 10 knots 10,000+ meters
  • No significant clouds
Becoming Apr-26 @ 18:00 to Apr-27 @ 00:00
BECMG 2618/2620 VRB03KT TX24/2612Z TN13/2604Z
Wind Visibility Clouds Conditions
Variable at 3 knots 10,000+ meters
  • No significant clouds
TAF FAOR 251600Z 2518/2624 01007KT CAVOK BECMG 2607/2609 29010KT BECMG 2618/2620 VRB03KT TX24/2612Z TN13/2604Z
Issued Apr-25 @ 16:00 UTC
(2 hours ago)
Valid From Apr-25 @ 18:00 UTC
(12 minutes ago)
Valid To Apr-27 @ 00:00 UTC
(-1 days ago)
Apr-25 @ 18:00 - Apr-26 @ 07:00
Wind Visibility
10° at 7 knots 10,000+ meters
Clouds
  • No significant clouds
Conditions
Becoming Apr-26 @ 07:00 - Apr-26 @ 18:00
Wind Visibility
290° at 10 knots 10,000+ meters
Clouds
  • No significant clouds
Conditions
Becoming Apr-26 @ 18:00 - Apr-27 @ 00:00
Wind Visibility
Variable at 3 knots 10,000+ meters
Clouds
  • No significant clouds
Conditions